ADDS METAR Data INFO
IDs: Format: Raw Decoded Include TAF

Data at: 0147 UTC 17 Oct 2017

KHZR 170135Z AUTO 36007KT 10SM CLR 16/08 A3020 RMK AO2 T01570077
KHZR 170115Z AUTO 35007KT 10SM CLR 16/08 A3020 RMK AO2 T01610078
KHZR 170055Z AUTO 35005KT 10SM CLR 16/08 A3020 RMK AO2 T01620080
KHZR 170035Z AUTO 35004KT 10SM CLR 16/08 A3018 RMK AO2 T01620082
KHZR 170015Z AUTO 35005KT 10SM CLR 18/08 A3018 RMK AO2 T01750077
KHZR 162355Z AUTO 35005KT 10SM CLR 18/08 A3017 RMK AO2 T01840075 10241 20184
KHZR 162335Z AUTO 35007KT 10SM CLR 19/07 A3016 RMK AO2 T01910071
KHZR 162315Z AUTO 34008KT 10SM CLR 20/07 A3015 RMK AO2 T02020070
KHZR 162255Z AUTO 35007KT 10SM CLR 21/08 A3014 RMK AO2 T02060077
KHZR 162235Z AUTO 35006KT 10SM CLR 22/07 A3014 RMK AO2 T02150069
KHZR 162215Z AUTO 01012KT 10SM CLR 22/07 A3013 RMK AO2 T02210072
KHZR 162155Z AUTO 35010KT 10SM CLR 22/08 A3013 RMK AO2 T02200076
KHZR 162135Z AUTO 35012KT 10SM CLR 23/08 A3013 RMK AO2 T02260080
KHZR 162115Z AUTO 33011KT 10SM CLR 23/08 A3013 RMK AO2 T02290083
KHZR 162055Z AUTO 35013G16KT 10SM CLR 23/09 A3013 RMK AO2 T02290085
KHZR 162035Z AUTO 33013KT 10SM CLR 23/09 A3013 RMK AO2 T02290093
KHZR 162015Z AUTO 34012G15KT 10SM CLR 23/07 A3013 RMK AO2 T02340070
KHZR 161955Z AUTO 36010G19KT 10SM CLR 24/06 A3013 RMK AO2 T02400058
KHZR 161935Z AUTO 36012G17KT 10SM CLR 24/06 A3013 RMK AO2 T02400058
KHZR 161915Z AUTO 36014G19KT 10SM CLR 23/06 A3014 RMK AO2 T02340056
KHZR 161855Z AUTO 35010G15KT 10SM CLR 23/06 A3015 RMK AO2 T02270063
KHZR 161835Z AUTO 36012G15KT 10SM CLR 22/07 A3016 RMK AO2 T02240073
KHZR 161815Z AUTO 01012KT 10SM CLR 22/07 A3018 RMK AO2 T02220069
KHZR 161755Z AUTO 35012G16KT 10SM CLR 21/07 A3020 RMK AO2 T02130067 10217 20147
KHZR 161735Z AUTO 01011KT 10SM CLR 21/08 A3020 RMK AO2 T02120075
KHZR 161715Z AUTO 36016G21KT 10SM CLR 20/07 A3021 RMK AO2 T02010074
KHZR 161655Z AUTO 35014G18KT 10SM CLR 20/08 A3022 RMK AO2 T02010079
KHZR 161635Z AUTO 01012G17KT 10SM CLR 20/08 A3023 RMK AO2 T01990079
KHZR 161615Z AUTO 36013G16KT 10SM CLR 19/08 A3023 RMK AO2 T01940076
KHZR 161555Z AUTO 36013KT 10SM CLR 19/08 A3024 RMK AO2 T01900077
KHZR 161535Z AUTO 36012KT 10SM CLR 18/08 A3024 RMK AO2 T01840079
KHZR 161515Z AUTO 02011KT 10SM CLR 18/08 A3024 RMK AO2 T01790079
KHZR 161455Z AUTO 02014G17KT 10SM CLR 17/08 A3025 RMK AO2 T01720079
KHZR 161435Z AUTO 02010G17KT 10SM CLR 17/09 A3024 RMK AO2 T01720090
KHZR 161415Z AUTO 01015G22KT 10SM CLR 17/09 A3023 RMK AO2 T01650091
KHZR 161355Z AUTO 36012G17KT 10SM CLR 16/10 A3023 RMK AO2 T01600099
KHZR 161335Z AUTO 36010G18KT 10SM CLR 16/10 A3022 RMK AO2 T01550100
KHZR 161315Z AUTO 01010G15KT 10SM SCT090 15/10 A3021 RMK AO2 T01510100
KHZR 161255Z AUTO 36010KT 10SM SCT090 15/10 A3021 RMK AO2 T01470100
KHZR 161235Z AUTO 36011KT 10SM OVC090 15/10 A3020 RMK AO2 T01510102
KHZR 161215Z AUTO 36010G16KT 10SM OVC090 16/11 A3019 RMK AO2 T01550105
KHZR 161155Z AUTO 01009KT 10SM OVC090 16/11 A3018 RMK AO2 T01560106 10198 20155
KHZR 161135Z AUTO 36010KT 10SM OVC090 16/11 A3018 RMK AO2 T01570106
KHZR 161115Z AUTO 36008KT 10SM SCT070 BKN090 16/11 A3017 RMK AO2 T01560107
KHZR 161055Z AUTO 01011G15KT 10SM SCT070 SCT100 16/11 A3015 RMK AO2 LTG DSNT E AND SE T01560105
KHZR 161035Z AUTO 01009G16KT 10SM SCT100 16/10 A3015 RMK AO2 T01590102
KHZR 161015Z AUTO 36010KT 10SM SCT100 16/10 A3015 RMK AO2 T01590103
KHZR 160955Z AUTO 35010KT 10SM SCT110 16/11 A3014 RMK AO2 LTG DSNT E T01610105
KHZR 160935Z AUTO 36010KT 10SM SCT060 17/11 A3014 RMK AO2 T01650112
KHZR 160915Z AUTO 35009G14KT 10SM SCT060 17/12 A3013 RMK AO2 LTG DSNT E T01680119
KHZR 160855Z AUTO 36010KT 10SM SCT050 SCT100 17/13 A3013 RMK AO2 LTG DSNT NE T01700125
KHZR 160835Z AUTO 36009G16KT 10SM BKN050 17/13 A3013 RMK AO2 T01730132
KHZR 160815Z AUTO 35009KT 10SM OVC050 18/14 A3014 RMK AO2 T01760135
KHZR 160755Z AUTO 36010KT 10SM OVC050 18/14 A3014 RMK AO2 T01770141
KHZR 160735Z AUTO 36011G17KT 10SM -RA OVC048 18/15 A3013 RMK AO2 T01790146
KHZR 160715Z AUTO 36011KT 10SM SCT036 OVC046 18/15 A3014 RMK AO2 T01820152
KHZR 160655Z AUTO 35009KT 10SM -RA BKN036 OVC044 19/16 A3015 RMK AO2 T01870155
KHZR 160635Z AUTO 36010G18KT 10SM BKN032 OVC044 19/15 A3015 RMK AO2 T01920150
KHZR 160615Z AUTO 36010G19KT 10SM OVC030 20/15 A3015 RMK AO2 T01950151
KHZR 160555Z AUTO 36015G22KT 10SM BKN018 OVC030 20/15 A3015 RMK AO2 LTG DSNT NE T01990153 10267 20199 403200199
KHZR 160535Z AUTO 35015G18KT 10SM OVC018 21/17 A3015 RMK AO2 T02070170
KHZR 160515Z AUTO 35012G20KT 10SM OVC018 21/17 A3015 RMK AO2 T02110172
KHZR 160455Z AUTO 35013G18KT 10SM OVC018 21/18 A3015 RMK AO2 T02140176
KHZR 160435Z AUTO 35009G20KT 10SM OVC018 22/18 A3014 RMK AO2 T02170180
KHZR 160415Z AUTO 35013G19KT 10SM OVC016 22/19 A3014 RMK AO2 T02200185
KHZR 160355Z AUTO 34012G18KT 10SM OVC016 23/19 A3013 RMK AO2 T02250190
KHZR 160335Z AUTO 35012G19KT 10SM OVC016 23/20 A3013 RMK AO2 T02280195
KHZR 160315Z AUTO 35017G20KT 10SM OVC016 23/20 A3011 RMK AO2 T02310198
KHZR 160255Z AUTO 34012G18KT 10SM BKN018 BKN035 BKN050 24/21 A3011 RMK AO2 T02380205
KHZR 160235Z AUTO 33015G19KT 10SM SCT024 BKN033 OVC050 25/22 A3009 RMK AO2 T02530216
KHZR 160215Z AUTO 33006KT 10SM SCT041 BKN050 OVC075 26/23 A3007 RMK AO2 T02560229
KHZR 160155Z AUTO 00000KT 10SM BKN050 BKN060 BKN075 26/23 A3007 RMK AO2 T02630230
KHZR 160135Z AUTO 10004KT 10SM SCT050 SCT085 26/22 A3005 RMK AO2 T02590221
KHZR 160115Z AUTO 00000KT 10SM BKN050 BKN085 26/23 A3005 RMK AO2 T02560225
KHZR 160055Z AUTO 00000KT 10SM SCT050 26/22 A3005 RMK AO2 LTG DSNT N T02550223
KHZR 160035Z AUTO 00000KT 10SM CLR 26/23 A3004 RMK AO2 T02570229
KHZR 160015Z AUTO 00000KT 10SM CLR 26/23 A3003 RMK AO2 T02630229
KHZR 152355Z AUTO 00000KT 10SM CLR 27/23 A3003 RMK AO2 LTG DSNT N AND E T02670225 10320 20267
KHZR 152335Z AUTO 00000KT 10SM VCTS CLR 28/22 A3002 RMK AO2 T02750222
KHZR 152315Z AUTO 00000KT 10SM CLR 28/22 A3002 RMK AO2 T02800222
KHZR 152255Z AUTO 35003KT 10SM CLR 29/21 A3001 RMK AO2 T02920210
KHZR 152235Z AUTO 33003KT 10SM CLR 30/21 A3002 RMK AO2 LTG DSNT SW T03010209
KHZR 152215Z AUTO 01004KT 10SM CLR 31/21 A3001 RMK AO2 T03110208
KHZR 152155Z AUTO 35004KT 10SM CLR 31/21 A3001 RMK AO2 LTG DSNT SE T03120209
KHZR 152135Z AUTO 35005KT 10SM CLR 32/21 A3000 RMK AO2 LTG DSNT S AND SW T03170208
KHZR 152115Z AUTO 36006KT 10SM CLR 32/21 A3000 RMK AO2 T03160210
KHZR 152055Z AUTO 34005KT 10SM CLR 31/22 A3000 RMK AO2 T03140222
KHZR 152035Z AUTO 32005KT 10SM CLR 31/22 A3000 RMK AO2 LTG DSNT SW T03130222
KHZR 152015Z AUTO 34006KT 10SM CLR 31/23 A3001 RMK AO2 T03120225
KHZR 151955Z AUTO 31004KT 10SM CLR 30/22 A3002 RMK AO2 T03010223
KHZR 151935Z AUTO 31006KT 10SM SCT034 31/23 A3002 RMK AO2 T03100225
KHZR 151915Z AUTO 35007KT 10SM SCT034 31/22 A3002 RMK AO2 T03120224
KHZR 151855Z AUTO 36007KT 10SM CLR 31/23 A3002 RMK AO2 LTG DSNT E T03080228
KHZR 151835Z AUTO 32004KT 10SM CLR 31/23 A3004 RMK AO2 LTG DSNT E T03060227
KHZR 151815Z AUTO 02003KT 10SM CLR 31/23 A3005 RMK AO2 T03050226
KHZR 151755Z AUTO 32004KT 10SM SCT026 30/23 A3007 RMK AO2 LTG DSNT E T03010227 10303 20209
KHZR 151735Z AUTO 05003KT 10SM SCT023 30/23 A3007 RMK AO2 LTG DSNT E T03010229
KHZR 151715Z AUTO 00000KT 10SM SCT023 29/23 A3009 RMK AO2 T02880226
KHZR 151655Z AUTO 00000KT 10SM SCT023 SCT032 29/23 A3010 RMK AO2 T02900230
KHZR 151635Z AUTO 33003KT 10SM SCT021 SCT025 SCT038 29/24 A3011 RMK AO2 T02880235
KHZR 151615Z AUTO 00000KT 10SM BKN019 BKN027 OVC038 28/23 A3011 RMK AO2 T02790231
KHZR 151555Z AUTO 00000KT 10SM SCT015 SCT022 SCT027 28/24 A3011 RMK AO2 T02800235
KHZR 151535Z AUTO 02003KT 10SM CLR 27/24 A3012 RMK AO2 T02730238
KHZR 151515Z AUTO 36003KT 10SM SCT008 SCT017 SCT029 26/23 A3012 RMK AO2 T02610234
KHZR 151455Z AUTO 00000KT 10SM SCT008 BKN017 BKN033 26/23 A3012 RMK AO2 T02570233
KHZR 151435Z AUTO 35003KT 10SM SCT008 BKN033 25/23 A3012 RMK AO2 T02510230
KHZR 151415Z AUTO 34003KT 10SM SCT033 25/23 A3011 RMK AO2 T02510231
KHZR 151355Z AUTO 00000KT 10SM CLR 24/23 A3010 RMK AO2 T02410229